sensor_id;sensor_type;location;lat;lon;timestamp;pressure;altitude;pressure_sealevel;temperature;humidity
20630;BME280;17386;43.846;25.950;2023-05-03T00:00:00;101880.25;;;14.44;49.61
20630;BME280;17386;43.846;25.950;2023-05-03T00:02:26;101881.13;;;14.44;50.02
20630;BME280;17386;43.846;25.950;2023-05-03T00:04:52;101883.06;;;14.39;50.79
20630;BME280;17386;43.846;25.950;2023-05-03T00:07:18;101878.59;;;14.40;51.06
20630;BME280;17386;43.846;25.950;2023-05-03T00:09:44;101873.50;;;14.32;51.82
20630;BME280;17386;43.846;25.950;2023-05-03T00:12:10;101876.09;;;14.35;52.32
20630;BME280;17386;43.846;25.950;2023-05-03T00:14:35;101872.56;;;14.33;53.02
20630;BME280;17386;43.846;25.950;2023-05-03T00:17:01;101877.00;;;14.34;53.90
20630;BME280;17386;43.846;25.950;2023-05-03T00:19:26;101865.59;;;14.29;55.03
20630;BME280;17386;43.846;25.950;2023-05-03T00:21:54;101876.38;;;14.26;56.03
20630;BME280;17386;43.846;25.950;2023-05-03T00:24:19;101882.59;;;14.27;56.35
20630;BME280;17386;43.846;25.950;2023-05-03T00:26:45;101884.63;;;14.18;58.05
20630;BME280;17386;43.846;25.950;2023-05-03T00:29:10;101878.63;;;14.12;59.22
20630;BME280;17386;43.846;25.950;2023-05-03T00:31:35;101882.22;;;14.11;59.85
20630;BME280;17386;43.846;25.950;2023-05-03T00:34:01;101883.09;;;14.11;60.78
20630;BME280;17386;43.846;25.950;2023-05-03T00:36:26;101883.91;;;14.13;61.46
20630;BME280;17386;43.846;25.950;2023-05-03T00:38:52;101883.88;;;14.15;62.27
20630;BME280;17386;43.846;25.950;2023-05-03T00:41:18;101890.09;;;14.15;62.78
20630;BME280;17386;43.846;25.950;2023-05-03T00:43:43;101888.44;;;14.11;62.81
20630;BME280;17386;43.846;25.950;2023-05-03T00:46:09;101880.56;;;14.07;63.44
20630;BME280;17386;43.846;25.950;2023-05-03T00:48:34;101877.31;;;13.97;64.07
20630;BME280;17386;43.846;25.950;2023-05-03T00:51:01;101878.25;;;13.96;64.61
20630;BME280;17386;43.846;25.950;2023-05-03T00:53:26;101862.50;;;13.87;64.80
20630;BME280;17386;43.846;25.950;2023-05-03T00:55:54;101874.69;;;13.95;64.97
20630;BME280;17386;43.846;25.950;2023-05-03T00:58:20;101873.09;;;13.90;65.30
20630;BME280;17386;43.846;25.950;2023-05-03T01:00:46;101858.97;;;13.86;65.24
20630;BME280;17386;43.846;25.950;2023-05-03T01:03:12;101858.22;;;13.81;65.62
20630;BME280;17386;43.846;25.950;2023-05-03T01:08:28;101859.63;;;13.65;67.39
20630;BME280;17386;43.846;25.950;2023-05-03T01:17:03;101850.84;;;13.61;68.78
20630;BME280;17386;43.846;25.950;2023-05-03T01:19:36;101846.38;;;13.62;69.33
20630;BME280;17386;43.846;25.950;2023-05-03T01:22:21;101847.25;;;13.62;69.66
20630;BME280;17386;43.846;25.950;2023-05-03T01:24:59;101837.63;;;13.57;69.68
20630;BME280;17386;43.846;25.950;2023-05-03T01:27:25;101832.28;;;13.57;70.00
20630;BME280;17386;43.846;25.950;2023-05-03T01:29:51;101833.34;;;13.51;70.40
20630;BME280;17386;43.846;25.950;2023-05-03T01:32:26;101828.22;;;13.45;71.12
20630;BME280;17386;43.846;25.950;2023-05-03T01:35:03;101831.00;;;13.40;71.29
20630;BME280;17386;43.846;25.950;2023-05-03T01:37:32;101839.44;;;13.27;72.36
20630;BME280;17386;43.846;25.950;2023-05-03T01:40:20;101843.22;;;13.17;72.77
20630;BME280;17386;43.846;25.950;2023-05-03T01:42:47;101846.06;;;13.12;73.04
20630;BME280;17386;43.846;25.950;2023-05-03T01:45:13;101840.66;;;13.13;73.15
20630;BME280;17386;43.846;25.950;2023-05-03T01:47:38;101844.25;;;13.12;73.18
20630;BME280;17386;43.846;25.950;2023-05-03T01:50:04;101830.13;;;13.09;73.29
20630;BME280;17386;43.846;25.950;2023-05-03T01:52:29;101834.53;;;13.10;73.38
20630;BME280;17386;43.846;25.950;2023-05-03T01:54:55;101834.41;;;13.14;72.97
20630;BME280;17386;43.846;25.950;2023-05-03T01:57:21;101830.75;;;13.17;72.78
20630;BME280;17386;43.846;25.950;2023-05-03T01:59:47;101834.28;;;13.19;72.82
20630;BME280;17386;43.846;25.950;2023-05-03T02:02:12;101829.25;;;13.08;72.76
20630;BME280;17386;43.846;25.950;2023-05-03T02:04:38;101837.19;;;13.11;72.38
20630;BME280;17386;43.846;25.950;2023-05-03T02:07:03;101835.38;;;13.12;72.38
20630;BME280;17386;43.846;25.950;2023-05-03T02:09:28;101827.31;;;13.13;71.84
20630;BME280;17386;43.846;25.950;2023-05-03T02:11:54;101823.66;;;13.18;71.70
20630;BME280;17386;43.846;25.950;2023-05-03T02:14:19;101822.03;;;13.12;71.94
20630;BME280;17386;43.846;25.950;2023-05-03T02:16:45;101836.25;;;13.12;71.85
20630;BME280;17386;43.846;25.950;2023-05-03T02:19:10;101825.63;;;13.11;71.83
20630;BME280;17386;43.846;25.950;2023-05-03T02:21:36;101819.38;;;13.12;71.28
20630;BME280;17386;43.846;25.950;2023-05-03T02:24:01;101816.06;;;13.04;71.48
20630;BME280;17386;43.846;25.950;2023-05-03T02:26:27;101826.78;;;13.01;71.39
20630;BME280;17386;43.846;25.950;2023-05-03T02:28:53;101823.31;;;12.99;71.22
20630;BME280;17386;43.846;25.950;2023-05-03T02:31:20;101830.81;;;12.84;71.58
20630;BME280;17386;43.846;25.950;2023-05-03T02:33:45;101829.09;;;12.82;71.54
20630;BME280;17386;43.846;25.950;2023-05-03T02:36:11;101821.09;;;12.82;71.55
20630;BME280;17386;43.846;25.950;2023-05-03T02:38:37;101821.31;;;12.74;71.46
20630;BME280;17386;43.846;25.950;2023-05-03T02:41:02;101820.69;;;12.65;71.91
20630;BME280;17386;43.846;25.950;2023-05-03T02:43:28;101820.00;;;12.58;72.17
20630;BME280;17386;43.846;25.950;2023-05-03T02:45:53;101824.44;;;12.57;72.54
20630;BME280;17386;43.846;25.950;2023-05-03T02:48:18;101842.34;;;12.52;72.77
20630;BME280;17386;43.846;25.950;2023-05-03T02:50:44;101842.56;;;12.45;73.06
20630;BME280;17386;43.846;25.950;2023-05-03T02:53:09;101839.94;;;12.43;73.17
20630;BME280;17386;43.846;25.950;2023-05-03T02:55:35;101831.94;;;12.43;73.25
20630;BME280;17386;43.846;25.950;2023-05-03T02:58:01;101837.38;;;12.39;73.59
20630;BME280;17386;43.846;25.950;2023-05-03T03:00:26;101832.16;;;12.34;74.14
20630;BME280;17386;43.846;25.950;2023-05-03T03:02:52;101834.91;;;12.31;74.32
20630;BME280;17386;43.846;25.950;2023-05-03T03:05:17;101833.94;;;12.33;74.32
20630;BME280;17386;43.846;25.950;2023-05-03T03:07:43;101832.31;;;12.28;74.64
20630;BME280;17386;43.846;25.950;2023-05-03T03:10:08;101826.25;;;12.23;75.18
20630;BME280;17386;43.846;25.950;2023-05-03T03:12:37;101840.47;;;12.22;75.44
20630;BME280;17386;43.846;25.950;2023-05-03T03:15:03;101830.81;;;12.18;75.79
20630;BME280;17386;43.846;25.950;2023-05-03T03:17:29;101829.94;;;12.17;75.90
20630;BME280;17386;43.846;25.950;2023-05-03T03:19:55;101823.78;;;12.15;76.21
20630;BME280;17386;43.846;25.950;2023-05-03T03:22:22;101822.81;;;12.18;76.04
20630;BME280;17386;43.846;25.950;2023-05-03T03:24:48;101830.88;;;12.15;76.16
20630;BME280;17386;43.846;25.950;2023-05-03T03:27:13;101839.72;;;12.17;75.74
20630;BME280;17386;43.846;25.950;2023-05-03T03:29:39;101827.38;;;12.13;75.65
20630;BME280;17386;43.846;25.950;2023-05-03T03:32:05;101838.69;;;12.21;75.31
20630;BME280;17386;43.846;25.950;2023-05-03T03:34:31;101843.97;;;12.24;74.92
20630;BME280;17386;43.846;25.950;2023-05-03T03:36:57;101847.50;;;12.24;74.71
20630;BME280;17386;43.846;25.950;2023-05-03T03:39:22;101858.13;;;12.26;74.73
20630;BME280;17386;43.846;25.950;2023-05-03T03:41:48;101860.09;;;12.18;74.95
20630;BME280;17386;43.846;25.950;2023-05-03T03:44:13;101859.47;;;12.08;75.65
20630;BME280;17386;43.846;25.950;2023-05-03T03:46:39;101851.47;;;12.08;75.58
20630;BME280;17386;43.846;25.950;2023-05-03T03:49:04;101865.56;;;12.12;75.50
20630;BME280;17386;43.846;25.950;2023-05-03T03:51:29;101854.81;;;12.16;75.39
20630;BME280;17386;43.846;25.950;2023-05-03T03:53:55;101846.88;;;12.13;75.52
20630;BME280;17386;43.846;25.950;2023-05-03T03:56:20;101856.63;;;12.16;75.85
20630;BME280;17386;43.846;25.950;2023-05-03T03:58:46;101861.81;;;12.20;75.79
20630;BME280;17386;43.846;25.950;2023-05-03T04:01:11;101859.19;;;12.19;75.81
20630;BME280;17386;43.846;25.950;2023-05-03T04:03:37;101858.31;;;12.18;75.97
20630;BME280;17386;43.846;25.950;2023-05-03T04:06:02;101865.34;;;12.21;76.07
20630;BME280;17386;43.846;25.950;2023-05-03T04:08:27;101867.28;;;12.16;76.87
20630;BME280;17386;43.846;25.950;2023-05-03T04:10:53;101861.22;;;12.08;77.60
20630;BME280;17386;43.846;25.950;2023-05-03T04:13:18;101868.34;;;12.07;77.98
20630;BME280;17386;43.846;25.950;2023-05-03T04:15:44;101867.56;;;12.03;78.39
20630;BME280;17386;43.846;25.950;2023-05-03T04:18:09;101857.63;;;12.10;78.33
20630;BME280;17386;43.846;25.950;2023-05-03T04:20:35;101848.97;;;12.02;78.46
20630;BME280;17386;43.846;25.950;2023-05-03T04:23:01;101870.66;;;12.22;78.39
20630;BME280;17386;43.846;25.950;2023-05-03T04:25:26;101867.03;;;12.25;78.48
20630;BME280;17386;43.846;25.950;2023-05-03T04:27:52;101868.72;;;12.29;78.66
20630;BME280;17386;43.846;25.950;2023-05-03T04:30:17;101888.25;;;12.29;78.78
20630;BME280;17386;43.846;25.950;2023-05-03T04:32:44;101872.13;;;12.36;78.88
20630;BME280;17386;43.846;25.950;2023-05-03T04:35:09;101877.38;;;12.37;78.91
20630;BME280;17386;43.846;25.950;2023-05-03T04:37:36;101878.16;;;12.42;79.10
20630;BME280;17386;43.846;25.950;2023-05-03T04:40:02;101885.16;;;12.46;79.11
20630;BME280;17386;43.846;25.950;2023-05-03T04:42:34;101882.41;;;12.49;79.22
20630;BME280;17386;43.846;25.950;2023-05-03T04:45:00;101884.84;;;12.58;79.24
20630;BME280;17386;43.846;25.950;2023-05-03T04:47:28;101883.91;;;12.59;79.34
20630;BME280;17386;43.846;25.950;2023-05-03T04:49:53;101883.72;;;12.67;79.04
20630;BME280;17386;43.846;25.950;2023-05-03T04:52:18;101887.09;;;12.74;78.86
20630;BME280;17386;43.846;25.950;2023-05-03T04:54:44;101885.25;;;12.77;78.61
20630;BME280;17386;43.846;25.950;2023-05-03T04:57:10;101880.81;;;12.76;78.96
20630;BME280;17386;43.846;25.950;2023-05-03T04:59:35;101882.38;;;12.85;78.39
20630;BME280;17386;43.846;25.950;2023-05-03T05:02:02;101882.38;;;12.85;78.49
20630;BME280;17386;43.846;25.950;2023-05-03T05:04:27;101885.75;;;12.92;78.22
20630;BME280;17386;43.846;25.950;2023-05-03T05:06:53;101875.06;;;12.92;78.18
20630;BME280;17386;43.846;25.950;2023-05-03T05:09:26;101882.06;;;12.96;77.75
20630;BME280;17386;43.846;25.950;2023-05-03T05:11:52;101894.25;;;13.06;77.73
20630;BME280;17386;43.846;25.950;2023-05-03T05:14:18;101888.81;;;13.09;77.89
20630;BME280;17386;43.846;25.950;2023-05-03T05:16:43;101899.31;;;13.15;77.20
20630;BME280;17386;43.846;25.950;2023-05-03T05:19:09;101887.63;;;13.21;76.88
20630;BME280;17386;43.846;25.950;2023-05-03T05:21:34;101887.41;;;13.28;76.97
20630;BME280;17386;43.846;25.950;2023-05-03T05:24:00;101900.06;;;13.22;77.73
20630;BME280;17386;43.846;25.950;2023-05-03T05:26:26;101890.19;;;13.25;77.23
20630;BME280;17386;43.846;25.950;2023-05-03T05:28:52;101892.69;;;13.30;77.08
20630;BME280;17386;43.846;25.950;2023-05-03T05:31:17;101909.34;;;13.38;77.29
20630;BME280;17386;43.846;25.950;2023-05-03T05:33:43;101895.88;;;13.43;76.93
20630;BME280;17386;43.846;25.950;2023-05-03T05:36:08;101897.56;;;13.47;77.27
20630;BME280;17386;43.846;25.950;2023-05-03T05:38:34;101890.28;;;13.52;77.29
20630;BME280;17386;43.846;25.950;2023-05-03T05:41:00;101897.22;;;13.59;77.12
20630;BME280;17386;43.846;25.950;2023-05-03T05:43:25;101893.69;;;13.57;76.97
20630;BME280;17386;43.846;25.950;2023-05-03T05:45:50;101887.28;;;13.62;76.98
20630;BME280;17386;43.846;25.950;2023-05-03T05:48:16;101903.19;;;13.67;77.02
20630;BME280;17386;43.846;25.950;2023-05-03T05:50:41;101902.78;;;13.81;76.59
20630;BME280;17386;43.846;25.950;2023-05-03T05:53:07;101902.59;;;13.85;76.43
20630;BME280;17386;43.846;25.950;2023-05-03T05:55:34;101905.03;;;13.93;76.15
20630;BME280;17386;43.846;25.950;2023-05-03T05:57:59;101907.50;;;14.01;76.10
20630;BME280;17386;43.846;25.950;2023-05-03T06:00:25;101910.84;;;14.07;76.41
20630;BME280;17386;43.846;25.950;2023-05-03T06:02:50;101906.41;;;14.06;76.85
20630;BME280;17386;43.846;25.950;2023-05-03T06:05:16;101907.97;;;14.13;76.73
20630;BME280;17386;43.846;25.950;2023-05-03T06:07:41;101917.53;;;14.20;76.95
20630;BME280;17386;43.846;25.950;2023-05-03T06:10:07;101923.47;;;14.30;76.63
20630;BME280;17386;43.846;25.950;2023-05-03T06:12:33;101915.31;;;14.35;76.92
20630;BME280;17386;43.846;25.950;2023-05-03T06:15:01;101923.88;;;14.46;76.55
20630;BME280;17386;43.846;25.950;2023-05-03T06:17:27;101918.31;;;14.52;76.95
20630;BME280;17386;43.846;25.950;2023-05-03T06:19:52;101917.03;;;14.64;76.59
20630;BME280;17386;43.846;25.950;2023-05-03T06:22:18;101924.94;;;14.67;76.61
20630;BME280;17386;43.846;25.950;2023-05-03T06:24:43;101934.56;;;14.72;76.74
20630;BME280;17386;43.846;25.950;2023-05-03T06:27:08;101931.47;;;14.85;76.45
20630;BME280;17386;43.846;25.950;2023-05-03T06:29:34;101934.63;;;14.97;76.23
20630;BME280;17386;43.846;25.950;2023-05-03T06:31:59;101931.75;;;15.02;76.51
20630;BME280;17386;43.846;25.950;2023-05-03T06:34:25;101927.28;;;15.02;76.42
20630;BME280;17386;43.846;25.950;2023-05-03T06:36:51;101935.22;;;15.05;76.70
20630;BME280;17386;43.846;25.950;2023-05-03T06:39:16;101924.00;;;15.19;76.02
20630;BME280;17386;43.846;25.950;2023-05-03T06:41:42;101932.56;;;15.29;75.61
20630;BME280;17386;43.846;25.950;2023-05-03T06:44:07;101930.47;;;15.37;75.45
20630;BME280;17386;43.846;25.950;2023-05-03T06:46:33;101931.38;;;15.38;75.77
20630;BME280;17386;43.846;25.950;2023-05-03T06:48:58;101934.00;;;15.39;76.15
20630;BME280;17386;43.846;25.950;2023-05-03T06:51:25;101937.41;;;15.43;75.89
20630;BME280;17386;43.846;25.950;2023-05-03T06:53:55;101934.13;;;15.59;75.92
20630;BME280;17386;43.846;25.950;2023-05-03T06:56:21;101935.78;;;15.64;75.94
20630;BME280;17386;43.846;25.950;2023-05-03T06:58:47;101938.56;;;15.84;75.02
20630;BME280;17386;43.846;25.950;2023-05-03T07:01:12;101943.41;;;15.98;74.03
20630;BME280;17386;43.846;25.950;2023-05-03T07:03:38;101945.66;;;16.08;73.01
20630;BME280;17386;43.846;25.950;2023-05-03T07:06:04;101950.41;;;16.24;72.42
20630;BME280;17386;43.846;25.950;2023-05-03T07:08:29;101961.69;;;16.32;72.21
20630;BME280;17386;43.846;25.950;2023-05-03T07:10:55;101959.72;;;16.37;71.72
20630;BME280;17386;43.846;25.950;2023-05-03T07:13:21;101974.78;;;16.39;71.58
20630;BME280;17386;43.846;25.950;2023-05-03T07:15:46;101977.63;;;16.36;71.81
20630;BME280;17386;43.846;25.950;2023-05-03T07:18:12;101972.94;;;16.41;72.19
20630;BME280;17386;43.846;25.950;2023-05-03T07:20:37;101970.44;;;16.37;72.81
20630;BME280;17386;43.846;25.950;2023-05-03T07:23:02;101965.88;;;16.39;73.08
20630;BME280;17386;43.846;25.950;2023-05-03T07:25:28;101965.28;;;16.54;72.49
20630;BME280;17386;43.846;25.950;2023-05-03T07:27:54;101964.09;;;16.61;72.07
20630;BME280;17386;43.846;25.950;2023-05-03T07:30:20;101965.47;;;16.72;71.63
20630;BME280;17386;43.846;25.950;2023-05-03T07:32:46;101966.69;;;16.85;71.86
20630;BME280;17386;43.846;25.950;2023-05-03T07:35:12;101961.16;;;17.10;70.98
20630;BME280;17386;43.846;25.950;2023-05-03T07:37:37;101968.19;;;17.12;70.57
20630;BME280;17386;43.846;25.950;2023-05-03T07:40:07;101964.44;;;17.37;70.44
20630;BME280;17386;43.846;25.950;2023-05-03T07:42:34;101969.56;;;17.62;69.56
20630;BME280;17386;43.846;25.950;2023-05-03T07:45:00;101967.22;;;17.74;68.59
20630;BME280;17386;43.846;25.950;2023-05-03T07:47:25;101969.00;;;17.94;68.22
20630;BME280;17386;43.846;25.950;2023-05-03T07:49:52;101960.63;;;18.00;67.62
20630;BME280;17386;43.846;25.950;2023-05-03T07:52:17;101953.81;;;18.12;66.58
20630;BME280;17386;43.846;25.950;2023-05-03T07:54:43;101957.41;;;18.30;66.06
20630;BME280;17386;43.846;25.950;2023-05-03T07:57:10;101977.41;;;18.43;65.82
20630;BME280;17386;43.846;25.950;2023-05-03T07:59:36;101972.19;;;18.57;65.63
20630;BME280;17386;43.846;25.950;2023-05-03T08:02:02;101962.69;;;18.69;64.97
20630;BME280;17386;43.846;25.950;2023-05-03T08:04:28;101969.09;;;18.84;64.29
20630;BME280;17386;43.846;25.950;2023-05-03T08:06:53;101963.09;;;18.96;63.67
20630;BME280;17386;43.846;25.950;2023-05-03T08:09:19;101969.28;;;19.16;62.86
20630;BME280;17386;43.846;25.950;2023-05-03T08:11:44;101950.97;;;19.22;61.29
20630;BME280;17386;43.846;25.950;2023-05-03T08:14:10;101946.59;;;19.37;59.06
20630;BME280;17386;43.846;25.950;2023-05-03T08:16:36;101948.28;;;19.55;57.95
20630;BME280;17386;43.846;25.950;2023-05-03T08:19:01;101955.13;;;19.62;56.34
20630;BME280;17386;43.846;25.950;2023-05-03T08:21:26;101955.94;;;19.64;55.61
20630;BME280;17386;43.846;25.950;2023-05-03T08:23:52;101948.38;;;19.71;54.35
20630;BME280;17386;43.846;25.950;2023-05-03T08:26:18;101948.19;;;19.90;54.83
20630;BME280;17386;43.846;25.950;2023-05-03T08:28:46;101938.22;;;20.08;55.27
20630;BME280;17386;43.846;25.950;2023-05-03T08:31:11;101935.88;;;20.33;55.08
20630;BME280;17386;43.846;25.950;2023-05-03T08:33:37;101931.19;;;20.53;54.54
20630;BME280;17386;43.846;25.950;2023-05-03T08:36:03;101929.31;;;20.69;54.61
20630;BME280;17386;43.846;25.950;2023-05-03T08:38:28;101926.84;;;20.80;53.87
20630;BME280;17386;43.846;25.950;2023-05-03T08:40:57;101919.25;;;20.87;53.36
20630;BME280;17386;43.846;25.950;2023-05-03T08:43:26;101923.03;;;20.98;51.34
20630;BME280;17386;43.846;25.950;2023-05-03T08:45:52;101934.16;;;21.08;47.03
20630;BME280;17386;43.846;25.950;2023-05-03T08:48:17;101931.75;;;21.18;45.09
20630;BME280;17386;43.846;25.950;2023-05-03T08:50:43;101922.00;;;21.15;44.17
20630;BME280;17386;43.846;25.950;2023-05-03T08:53:09;101918.50;;;21.29;43.93
20630;BME280;17386;43.846;25.950;2023-05-03T08:55:35;101918.28;;;21.32;43.05
20630;BME280;17386;43.846;25.950;2023-05-03T08:58:02;101911.63;;;21.38;42.61
20630;BME280;17386;43.846;25.950;2023-05-03T09:00:34;101900.53;;;21.42;41.43
20630;BME280;17386;43.846;25.950;2023-05-03T09:03:00;101899.56;;;21.43;41.28
20630;BME280;17386;43.846;25.950;2023-05-03T09:08:10;101890.50;;;21.44;40.59
20630;BME280;17386;43.846;25.950;2023-05-03T09:10:37;101893.19;;;21.44;39.13
20630;BME280;17386;43.846;25.950;2023-05-03T09:13:04;101885.75;;;21.48;38.47
20630;BME280;17386;43.846;25.950;2023-05-03T09:15:30;101885.09;;;21.44;37.41
20630;BME280;17386;43.846;25.950;2023-05-03T09:20:35;101873.56;;;21.41;38.50
20630;BME280;17386;43.846;25.950;2023-05-03T09:23:01;101874.38;;;21.43;39.28
20630;BME280;17386;43.846;25.950;2023-05-03T09:25:59;101880.75;;;21.42;39.59
20630;BME280;17386;43.846;25.950;2023-05-03T09:28:25;101884.97;;;21.46;39.26
20630;BME280;17386;43.846;25.950;2023-05-03T09:31:03;101897.13;;;21.53;38.24
20630;BME280;17386;43.846;25.950;2023-05-03T09:33:29;101881.59;;;21.56;38.32
20630;BME280;17386;43.846;25.950;2023-05-03T09:35:59;101892.72;;;21.38;38.74
20630;BME280;17386;43.846;25.950;2023-05-03T09:38:35;101890.50;;;21.44;38.64
20630;BME280;17386;43.846;25.950;2023-05-03T09:41:03;101892.44;;;21.42;38.60
20630;BME280;17386;43.846;25.950;2023-05-03T09:43:33;101900.44;;;21.44;38.70
20630;BME280;17386;43.846;25.950;2023-05-03T09:46:06;101903.03;;;21.31;37.78
20630;BME280;17386;43.846;25.950;2023-05-03T09:48:32;101901.25;;;21.16;38.03
20630;BME280;17386;43.846;25.950;2023-05-03T09:50:57;101890.25;;;21.19;37.92
20630;BME280;17386;43.846;25.950;2023-05-03T09:53:23;101874.72;;;21.22;37.74
20630;BME280;17386;43.846;25.950;2023-05-03T09:55:51;101887.94;;;21.27;36.75
20630;BME280;17386;43.846;25.950;2023-05-03T09:58:17;101900.34;;;21.31;36.29
20630;BME280;17386;43.846;25.950;2023-05-03T10:00:43;101897.53;;;21.33;36.05
20630;BME280;17386;43.846;25.950;2023-05-03T10:03:20;101910.53;;;21.26;35.89
20630;BME280;17386;43.846;25.950;2023-05-03T10:05:48;101907.16;;;21.22;35.54
20630;BME280;17386;43.846;25.950;2023-05-03T10:08:40;101901.44;;;21.27;36.01
20630;BME280;17386;43.846;25.950;2023-05-03T10:11:07;101894.41;;;21.24;35.91
20630;BME280;17386;43.846;25.950;2023-05-03T10:13:34;101881.84;;;21.23;36.68
20630;BME280;17386;43.846;25.950;2023-05-03T10:16:05;101877.81;;;21.16;38.22
20630;BME280;17386;43.846;25.950;2023-05-03T10:18:36;101878.78;;;21.15;38.78
20630;BME280;17386;43.846;25.950;2023-05-03T10:21:11;101878.41;;;21.21;39.20
20630;BME280;17386;43.846;25.950;2023-05-03T10:24:08;101868.34;;;21.23;39.38
20630;BME280;17386;43.846;25.950;2023-05-03T10:26:33;101866.50;;;21.24;38.95
20630;BME280;17386;43.846;25.950;2023-05-03T10:28:59;101854.84;;;21.23;37.89
20630;BME280;17386;43.846;25.950;2023-05-03T10:31:44;101853.75;;;21.26;37.02
20630;BME280;17386;43.846;25.950;2023-05-03T10:34:24;101849.22;;;21.12;37.80
20630;BME280;17386;43.846;25.950;2023-05-03T10:36:54;101849.59;;;21.20;38.23
20630;BME280;17386;43.846;25.950;2023-05-03T10:39:20;101850.19;;;21.25;37.39
20630;BME280;17386;43.846;25.950;2023-05-03T10:42:07;101854.28;;;21.33;37.43
20630;BME280;17386;43.846;25.950;2023-05-03T10:44:48;101863.25;;;21.33;37.45
20630;BME280;17386;43.846;25.950;2023-05-03T10:47:16;101846.00;;;21.36;37.97
20630;BME280;17386;43.846;25.950;2023-05-03T10:49:42;101841.63;;;21.33;38.24
20630;BME280;17386;43.846;25.950;2023-05-03T10:55:13;101840.63;;;21.20;38.21
20630;BME280;17386;43.846;25.950;2023-05-03T10:57:40;101834.28;;;21.21;37.97
20630;BME280;17386;43.846;25.950;2023-05-03T11:05:42;101840.25;;;20.97;38.81
20630;BME280;17386;43.846;25.950;2023-05-03T11:10:36;101817.09;;;21.22;38.71
20630;BME280;17386;43.846;25.950;2023-05-03T11:13:02;101808.44;;;21.31;38.66
20630;BME280;17386;43.846;25.950;2023-05-03T11:15:27;101800.13;;;21.48;38.19
20630;BME280;17386;43.846;25.950;2023-05-03T11:17:53;101789.81;;;21.68;38.23
20630;BME280;17386;43.846;25.950;2023-05-03T11:20:18;101799.25;;;21.75;37.77
20630;BME280;17386;43.846;25.950;2023-05-03T11:22:44;101800.91;;;21.77;36.62
20630;BME280;17386;43.846;25.950;2023-05-03T11:25:11;101793.44;;;21.81;35.79
20630;BME280;17386;43.846;25.950;2023-05-03T11:27:36;101793.91;;;21.88;35.02
20630;BME280;17386;43.846;25.950;2023-05-03T11:30:02;101802.38;;;21.96;34.76
20630;BME280;17386;43.846;25.950;2023-05-03T11:32:27;101796.88;;;22.11;34.84
20630;BME280;17386;43.846;25.950;2023-05-03T11:34:54;101793.22;;;22.25;35.45
20630;BME280;17386;43.846;25.950;2023-05-03T11:37:20;101787.69;;;22.27;35.47
20630;BME280;17386;43.846;25.950;2023-05-03T11:39:45;101780.97;;;22.20;36.48
20630;BME280;17386;43.846;25.950;2023-05-03T11:42:12;101793.75;;;22.18;37.07
20630;BME280;17386;43.846;25.950;2023-05-03T11:44:38;101789.19;;;22.18;36.24
20630;BME280;17386;43.846;25.950;2023-05-03T11:47:03;101779.84;;;22.09;34.72
20630;BME280;17386;43.846;25.950;2023-05-03T11:49:29;101793.84;;;22.02;33.84
20630;BME280;17386;43.846;25.950;2023-05-03T11:51:55;101783.56;;;21.94;34.11
20630;BME280;17386;43.846;25.950;2023-05-03T11:54:21;101786.25;;;21.94;34.83
20630;BME280;17386;43.846;25.950;2023-05-03T11:56:49;101783.97;;;21.88;35.67
20630;BME280;17386;43.846;25.950;2023-05-03T11:59:15;101771.81;;;21.81;36.42
20630;BME280;17386;43.846;25.950;2023-05-03T12:01:41;101777.31;;;21.79;36.85
20630;BME280;17386;43.846;25.950;2023-05-03T12:04:07;101771.75;;;21.68;37.21
20630;BME280;17386;43.846;25.950;2023-05-03T12:06:34;101781.69;;;21.68;37.69
20630;BME280;17386;43.846;25.950;2023-05-03T12:09:00;101777.66;;;21.61;37.94
20630;BME280;17386;43.846;25.950;2023-05-03T12:11:27;101769.38;;;21.64;38.15
20630;BME280;17386;43.846;25.950;2023-05-03T12:13:56;101766.00;;;21.60;38.49
20630;BME280;17386;43.846;25.950;2023-05-03T12:16:26;101763.00;;;21.65;38.68
20630;BME280;17386;43.846;25.950;2023-05-03T12:18:57;101776.69;;;21.76;38.31
20630;BME280;17386;43.846;25.950;2023-05-03T12:21:51;101764.09;;;21.75;38.34
20630;BME280;17386;43.846;25.950;2023-05-03T12:24:17;101770.75;;;21.83;38.79
20630;BME280;17386;43.846;25.950;2023-05-03T12:26:46;101759.16;;;21.81;38.31
20630;BME280;17386;43.846;25.950;2023-05-03T12:29:12;101762.94;;;21.79;38.27
20630;BME280;17386;43.846;25.950;2023-05-03T12:31:38;101760.03;;;21.82;37.99
20630;BME280;17386;43.846;25.950;2023-05-03T12:34:04;101766.41;;;21.81;38.24
20630;BME280;17386;43.846;25.950;2023-05-03T12:36:30;101753.22;;;21.89;38.54
20630;BME280;17386;43.846;25.950;2023-05-03T12:39:02;101754.66;;;21.95;38.22
20630;BME280;17386;43.846;25.950;2023-05-03T12:41:28;101740.25;;;21.94;38.26
20630;BME280;17386;43.846;25.950;2023-05-03T12:43:58;101741.47;;;22.03;38.24
20630;BME280;17386;43.846;25.950;2023-05-03T12:46:24;101735.50;;;22.25;38.03
20630;BME280;17386;43.846;25.950;2023-05-03T12:48:51;101737.69;;;22.45;38.36
20630;BME280;17386;43.846;25.950;2023-05-03T12:51:17;101734.88;;;22.59;38.19
20630;BME280;17386;43.846;25.950;2023-05-03T12:53:43;101734.03;;;22.72;37.59
20630;BME280;17386;43.846;25.950;2023-05-03T12:56:08;101736.06;;;22.81;37.70
20630;BME280;17386;43.846;25.950;2023-05-03T12:58:34;101729.69;;;22.82;36.19
20630;BME280;17386;43.846;25.950;2023-05-03T13:01:00;101729.78;;;22.80;36.06
20630;BME280;17386;43.846;25.950;2023-05-03T13:03:26;101723.63;;;22.65;36.16